sensor_id;sensor_type;location;lat;lon;timestamp;pressure;altitude;pressure_sealevel;temperature;humidity
62290;BME280;48284;46.828;29.480;2022-10-20T00:01:21;101305.84;;;23.88;56.30
62290;BME280;48284;46.828;29.480;2022-10-20T00:03:50;101298.78;;;23.89;55.94
62290;BME280;48284;46.828;29.480;2022-10-20T00:06:21;101303.25;;;23.88;55.90
62290;BME280;48284;46.828;29.480;2022-10-20T00:08:50;101292.16;;;23.86;56.17
62290;BME280;48284;46.828;29.480;2022-10-20T00:11:21;101306.06;;;23.87;56.36
62290;BME280;48284;46.828;29.480;2022-10-20T00:13:52;101284.53;;;23.85;56.23
62290;BME280;48284;46.828;29.480;2022-10-20T00:16:24;101289.75;;;23.85;56.46
62290;BME280;48284;46.828;29.480;2022-10-20T00:18:53;101288.97;;;23.84;56.20
62290;BME280;48284;46.828;29.480;2022-10-20T00:21:23;101293.41;;;23.84;56.02
62290;BME280;48284;46.828;29.480;2022-10-20T00:23:52;101301.06;;;23.85;56.37
62290;BME280;48284;46.828;29.480;2022-10-20T00:26:22;101305.50;;;23.85;56.47
62290;BME280;48284;46.828;29.480;2022-10-20T00:28:51;101297.03;;;23.83;55.85
62290;BME280;48284;46.828;29.480;2022-10-20T00:31:22;101304.09;;;23.82;55.75
62290;BME280;48284;46.828;29.480;2022-10-20T00:33:51;101294.63;;;23.81;55.80
62290;BME280;48284;46.828;29.480;2022-10-20T00:36:21;101295.66;;;23.80;55.63
62290;BME280;48284;46.828;29.480;2022-10-20T00:38:50;101300.91;;;23.80;55.79
62290;BME280;48284;46.828;29.480;2022-10-20T00:41:23;101294.06;;;23.79;55.12
62290;BME280;48284;46.828;29.480;2022-10-20T00:43:53;101303.97;;;23.77;55.33
62290;BME280;48284;46.828;29.480;2022-10-20T00:46:26;101307.59;;;23.76;55.18
62290;BME280;48284;46.828;29.480;2022-10-20T00:48:57;101312.84;;;23.76;55.47
62290;BME280;48284;46.828;29.480;2022-10-20T00:51:28;101311.22;;;23.75;55.57
62290;BME280;48284;46.828;29.480;2022-10-20T00:54:02;101312.25;;;23.74;55.47
62290;BME280;48284;46.828;29.480;2022-10-20T00:56:34;101315.88;;;23.73;55.02
62290;BME280;48284;46.828;29.480;2022-10-20T00:59:04;101319.31;;;23.74;55.38
62290;BME280;48284;46.828;29.480;2022-10-20T01:01:34;101320.56;;;23.64;55.15
62290;BME280;48284;46.828;29.480;2022-10-20T01:04:03;101315.72;;;23.68;54.93
62290;BME280;48284;46.828;29.480;2022-10-20T01:06:31;101306.81;;;23.69;54.99
62290;BME280;48284;46.828;29.480;2022-10-20T01:09:00;101312.88;;;23.70;55.34
62290;BME280;48284;46.828;29.480;2022-10-20T01:11:33;101322.38;;;23.71;55.18
62290;BME280;48284;46.828;29.480;2022-10-20T01:14:25;101321.16;;;23.66;55.41
62290;BME280;48284;46.828;29.480;2022-10-20T01:17:02;101328.22;;;23.66;54.92
62290;BME280;48284;46.828;29.480;2022-10-20T01:22:51;101333.47;;;23.66;55.29
62290;BME280;48284;46.828;29.480;2022-10-20T01:25:38;101333.47;;;23.66;55.24
62290;BME280;48284;46.828;29.480;2022-10-20T01:28:18;101335.06;;;23.67;54.50
62290;BME280;48284;46.828;29.480;2022-10-20T01:30:56;101342.13;;;23.66;54.51
62290;BME280;48284;46.828;29.480;2022-10-20T01:33:30;101338.72;;;23.66;54.43
62290;BME280;48284;46.828;29.480;2022-10-20T01:36:03;101337.09;;;23.65;54.60
62290;BME280;48284;46.828;29.480;2022-10-20T01:38:38;101332.88;;;23.64;54.82
62290;BME280;48284;46.828;29.480;2022-10-20T01:41:15;101334.31;;;23.60;54.88
62290;BME280;48284;46.828;29.480;2022-10-20T01:43:48;101338.53;;;23.61;54.39
62290;BME280;48284;46.828;29.480;2022-10-20T01:46:19;101333.53;;;23.59;54.33
62290;BME280;48284;46.828;29.480;2022-10-20T01:48:49;101344.81;;;23.60;54.77
62290;BME280;48284;46.828;29.480;2022-10-20T01:51:18;101330.91;;;23.59;54.95
62290;BME280;48284;46.828;29.480;2022-10-20T01:53:46;101337.75;;;23.60;54.55
62290;BME280;48284;46.828;29.480;2022-10-20T01:56:17;101337.75;;;23.60;54.49
62290;BME280;48284;46.828;29.480;2022-10-20T02:01:57;101344.81;;;23.60;54.59
62290;BME280;48284;46.828;29.480;2022-10-20T02:04:36;101351.06;;;23.59;54.45
62290;BME280;48284;46.828;29.480;2022-10-20T02:07:15;101357.31;;;23.58;54.08
62290;BME280;48284;46.828;29.480;2022-10-20T02:09:47;101366.78;;;23.59;54.18
62290;BME280;48284;46.828;29.480;2022-10-20T02:12:21;101366.78;;;23.59;54.05
62290;BME280;48284;46.828;29.480;2022-10-20T02:14:52;101374.66;;;23.59;54.13
62290;BME280;48284;46.828;29.480;2022-10-20T02:17:22;101367.59;;;23.59;53.97
62290;BME280;48284;46.828;29.480;2022-10-20T02:19:52;101372.44;;;23.56;53.86
62290;BME280;48284;46.828;29.480;2022-10-20T02:22:22;101387.16;;;23.57;54.19
62290;BME280;48284;46.828;29.480;2022-10-20T02:24:51;101403.91;;;23.56;53.86
62290;BME280;48284;46.828;29.480;2022-10-20T02:27:21;101401.47;;;23.54;53.72
62290;BME280;48284;46.828;29.480;2022-10-20T02:29:55;101406.91;;;23.53;54.24
62290;BME280;48284;46.828;29.480;2022-10-20T02:32:25;101397.44;;;23.52;54.17
62290;BME280;48284;46.828;29.480;2022-10-20T02:34:54;101411.56;;;23.51;54.09
62290;BME280;48284;46.828;29.480;2022-10-20T02:37:23;101416.78;;;23.51;53.73
62290;BME280;48284;46.828;29.480;2022-10-20T02:39:51;101424.66;;;23.51;53.65
62290;BME280;48284;46.828;29.480;2022-10-20T02:42:19;101435.94;;;23.51;53.64
62290;BME280;48284;46.828;29.480;2022-10-20T02:44:48;101439.56;;;23.50;53.54
62290;BME280;48284;46.828;29.480;2022-10-20T02:47:18;101442.41;;;23.49;53.81
62290;BME280;48284;46.828;29.480;2022-10-20T02:49:47;101437.16;;;23.49;53.57
62290;BME280;48284;46.828;29.480;2022-10-20T02:52:15;101438.19;;;23.48;53.45
62290;BME280;48284;46.828;29.480;2022-10-20T02:54:44;101440.00;;;23.47;53.78
62290;BME280;48284;46.828;29.480;2022-10-20T02:57:13;101450.25;;;23.49;53.28
62290;BME280;48284;46.828;29.480;2022-10-20T02:59:41;101438.19;;;23.48;53.42
62290;BME280;48284;46.828;29.480;2022-10-20T03:02:10;101435.94;;;23.51;53.19
62290;BME280;48284;46.828;29.480;2022-10-20T03:04:40;101436.53;;;23.53;53.85
62290;BME280;48284;46.828;29.480;2022-10-20T03:07:08;101464.75;;;23.51;53.46
62290;BME280;48284;46.828;29.480;2022-10-20T03:09:37;101477.06;;;23.51;53.31
62290;BME280;48284;46.828;29.480;2022-10-20T03:12:05;101479.88;;;23.49;52.94
62290;BME280;48284;46.828;29.480;2022-10-20T03:14:34;101484.31;;;23.49;52.90
62290;BME280;48284;46.828;29.480;2022-10-20T03:17:02;101480.69;;;23.50;53.31
62290;BME280;48284;46.828;29.480;2022-10-20T03:19:31;101498.81;;;23.51;53.18
62290;BME280;48284;46.828;29.480;2022-10-20T03:22:00;101497.22;;;23.57;53.23
62290;BME280;48284;46.828;29.480;2022-10-20T03:24:29;101491.72;;;23.65;53.78
62290;BME280;48284;46.828;29.480;2022-10-20T03:26:57;101487.06;;;23.67;53.85
62290;BME280;48284;46.828;29.480;2022-10-20T03:29:26;101487.66;;;23.69;53.71
62290;BME280;48284;46.828;29.480;2022-10-20T03:31:54;101497.75;;;23.72;54.07
62290;BME280;48284;46.828;29.480;2022-10-20T03:34:23;101494.69;;;23.75;54.00
62290;BME280;48284;46.828;29.480;2022-10-20T03:36:51;101495.28;;;23.77;54.08
62290;BME280;48284;46.828;29.480;2022-10-20T03:39:21;101491.44;;;23.80;53.83
62290;BME280;48284;46.828;29.480;2022-10-20T03:41:50;101495.47;;;23.82;53.62
62290;BME280;48284;46.828;29.480;2022-10-20T03:44:18;101492.63;;;23.84;53.57
62290;BME280;48284;46.828;29.480;2022-10-20T03:46:47;101489.00;;;23.85;53.81
62290;BME280;48284;46.828;29.480;2022-10-20T03:49:15;101494.22;;;23.85;53.40
62290;BME280;48284;46.828;29.480;2022-10-20T03:51:44;101496.66;;;23.86;53.94
62290;BME280;48284;46.828;29.480;2022-10-20T03:54:12;101507.94;;;23.87;53.48
62290;BME280;48284;46.828;29.480;2022-10-20T03:56:42;101501.09;;;23.86;54.00
62290;BME280;48284;46.828;29.480;2022-10-20T03:59:10;101505.31;;;23.87;53.95
62290;BME280;48284;46.828;29.480;2022-10-20T04:01:42;101501.88;;;23.86;53.61
62290;BME280;48284;46.828;29.480;2022-10-20T04:04:12;101508.31;;;23.90;53.30
62290;BME280;48284;46.828;29.480;2022-10-20T04:06:40;101509.31;;;23.89;53.70
62290;BME280;48284;46.828;29.480;2022-10-20T04:09:09;101506.72;;;23.89;53.55
62290;BME280;48284;46.828;29.480;2022-10-20T04:11:37;101497.81;;;23.90;53.72
62290;BME280;48284;46.828;29.480;2022-10-20T04:14:07;101510.72;;;23.92;53.46
62290;BME280;48284;46.828;29.480;2022-10-20T04:16:36;101508.69;;;23.94;53.84
62290;BME280;48284;46.828;29.480;2022-10-20T04:19:04;101507.69;;;23.95;54.00
62290;BME280;48284;46.828;29.480;2022-10-20T04:21:33;101517.72;;;23.98;54.71
62290;BME280;48284;46.828;29.480;2022-10-20T04:24:01;101511.69;;;23.97;54.72
62290;BME280;48284;46.828;29.480;2022-10-20T04:26:31;101513.09;;;24.00;54.36
62290;BME280;48284;46.828;29.480;2022-10-20T04:29:00;101510.66;;;23.98;54.53
62290;BME280;48284;46.828;29.480;2022-10-20T04:31:30;101525.38;;;24.00;54.70
62290;BME280;48284;46.828;29.480;2022-10-20T04:33:58;101519.72;;;24.03;54.92
62290;BME280;48284;46.828;29.480;2022-10-20T04:36:26;101521.75;;;24.01;54.89
62290;BME280;48284;46.828;29.480;2022-10-20T04:38:55;101533.84;;;24.02;54.80
62290;BME280;48284;46.828;29.480;2022-10-20T04:41:23;101531.22;;;24.02;54.82
62290;BME280;48284;46.828;29.480;2022-10-20T04:43:52;101540.91;;;24.01;54.84
62290;BME280;48284;46.828;29.480;2022-10-20T04:46:20;101545.56;;;23.99;54.30
62290;BME280;48284;46.828;29.480;2022-10-20T04:48:50;101557.88;;;23.98;54.32
62290;BME280;48284;46.828;29.480;2022-10-20T04:51:19;101565.53;;;24.00;54.62
62290;BME280;48284;46.828;29.480;2022-10-20T04:53:48;101565.53;;;24.00;54.13
62290;BME280;48284;46.828;29.480;2022-10-20T04:56:17;101580.66;;;23.98;54.60
62290;BME280;48284;46.828;29.480;2022-10-20T04:58:47;101575.22;;;24.00;54.29
62290;BME280;48284;46.828;29.480;2022-10-20T05:01:16;101580.25;;;24.01;54.37
62290;BME280;48284;46.828;29.480;2022-10-20T05:03:45;101601.00;;;24.03;54.14
62290;BME280;48284;46.828;29.480;2022-10-20T05:06:16;101603.22;;;24.06;54.11
62290;BME280;48284;46.828;29.480;2022-10-20T05:08:47;101599.16;;;24.10;53.79
62290;BME280;48284;46.828;29.480;2022-10-20T05:11:19;101627.56;;;24.13;53.32
62290;BME280;48284;46.828;29.480;2022-10-20T05:13:48;101628.38;;;24.13;53.38
62290;BME280;48284;46.828;29.480;2022-10-20T05:16:17;101632.81;;;24.13;53.26
62290;BME280;48284;46.828;29.480;2022-10-20T05:18:46;101644.72;;;24.15;53.64
62290;BME280;48284;46.828;29.480;2022-10-20T05:21:18;101644.72;;;24.15;53.57
62290;BME280;48284;46.828;29.480;2022-10-20T05:23:46;101645.50;;;24.16;53.81
62290;BME280;48284;46.828;29.480;2022-10-20T05:26:17;101658.63;;;24.16;53.42
62290;BME280;48284;46.828;29.480;2022-10-20T05:28:46;101654.19;;;24.16;53.63
62290;BME280;48284;46.828;29.480;2022-10-20T05:31:17;101660.44;;;24.15;53.29
62290;BME280;48284;46.828;29.480;2022-10-20T05:33:48;101659.44;;;24.16;53.26
62290;BME280;48284;46.828;29.480;2022-10-20T05:36:20;101665.25;;;24.18;53.42
62290;BME280;48284;46.828;29.480;2022-10-20T05:38:49;101674.75;;;24.19;53.57
62290;BME280;48284;46.828;29.480;2022-10-20T05:41:21;101675.53;;;24.20;53.22
62290;BME280;48284;46.828;29.480;2022-10-20T05:43:51;101673.94;;;24.19;53.50
62290;BME280;48284;46.828;29.480;2022-10-20T05:46:21;101684.44;;;24.19;53.51
62290;BME280;48284;46.828;29.480;2022-10-20T05:48:52;101676.56;;;24.19;53.01
62290;BME280;48284;46.828;29.480;2022-10-20T05:51:24;101691.50;;;24.18;53.23
62290;BME280;48284;46.828;29.480;2022-10-20T05:53:54;101687.25;;;24.17;53.54
62290;BME280;48284;46.828;29.480;2022-10-20T05:56:24;101688.06;;;24.18;53.02
62290;BME280;48284;46.828;29.480;2022-10-20T05:58:54;101688.66;;;24.20;53.22
62290;BME280;48284;46.828;29.480;2022-10-20T06:01:23;101700.41;;;24.11;53.36
62290;BME280;48284;46.828;29.480;2022-10-20T06:03:53;101699.78;;;24.15;53.01
62290;BME280;48284;46.828;29.480;2022-10-20T06:06:26;101704.41;;;24.20;52.91
62290;BME280;48284;46.828;29.480;2022-10-20T06:08:56;101720.72;;;24.22;53.24
62290;BME280;48284;46.828;29.480;2022-10-20T06:11:25;101709.22;;;24.23;52.96
62290;BME280;48284;46.828;29.480;2022-10-20T06:13:54;101714.72;;;24.15;53.28
62290;BME280;48284;46.828;29.480;2022-10-20T06:16:24;101728.47;;;24.10;53.28
62290;BME280;48284;46.828;29.480;2022-10-20T06:18:53;101728.63;;;24.15;52.89
62290;BME280;48284;46.828;29.480;2022-10-20T06:21:24;101730.84;;;24.18;52.68
62290;BME280;48284;46.828;29.480;2022-10-20T06:23:54;101722.75;;;24.20;52.99
62290;BME280;48284;46.828;29.480;2022-10-20T06:26:24;101724.97;;;24.23;52.46
62290;BME280;48284;46.828;29.480;2022-10-20T06:28:54;101731.00;;;24.23;52.76
62290;BME280;48284;46.828;29.480;2022-10-20T06:31:31;101729.19;;;24.24;52.84
62290;BME280;48284;46.828;29.480;2022-10-20T06:34:00;101731.22;;;24.22;52.75
62290;BME280;48284;46.828;29.480;2022-10-20T06:36:33;101720.34;;;24.18;52.56
62290;BME280;48284;46.828;29.480;2022-10-20T06:39:03;101728.44;;;24.17;52.30
62290;BME280;48284;46.828;29.480;2022-10-20T06:41:32;101730.03;;;24.18;52.47
62290;BME280;48284;46.828;29.480;2022-10-20T06:44:01;101728.44;;;24.17;52.44
62290;BME280;48284;46.828;29.480;2022-10-20T06:46:31;101734.09;;;24.14;52.12
62290;BME280;48284;46.828;29.480;2022-10-20T06:49:01;101727.22;;;24.13;52.14
62290;BME280;48284;46.828;29.480;2022-10-20T06:51:31;101730.88;;;24.12;52.08
62290;BME280;48284;46.828;29.480;2022-10-20T06:54:01;101737.13;;;24.11;52.06
62290;BME280;48284;46.828;29.480;2022-10-20T06:56:30;101728.47;;;24.10;52.04
62290;BME280;48284;46.828;29.480;2022-10-20T06:59:00;101731.28;;;24.09;52.01
62290;BME280;48284;46.828;29.480;2022-10-20T07:01:30;101735.53;;;24.10;52.39
62290;BME280;48284;46.828;29.480;2022-10-20T07:04:01;101737.72;;;24.13;52.29
62290;BME280;48284;46.828;29.480;2022-10-20T07:06:32;101733.28;;;24.13;52.24
62290;BME280;48284;46.828;29.480;2022-10-20T07:09:02;101722.78;;;24.13;52.29
62290;BME280;48284;46.828;29.480;2022-10-20T07:11:32;101727.84;;;24.15;52.24
62290;BME280;48284;46.828;29.480;2022-10-20T07:14:02;101732.06;;;24.16;51.67
62290;BME280;48284;46.828;29.480;2022-10-20T07:16:32;101730.25;;;24.16;52.10
62290;BME280;48284;46.828;29.480;2022-10-20T07:19:03;101741.53;;;24.17;51.93
62290;BME280;48284;46.828;29.480;2022-10-20T07:21:33;101734.69;;;24.16;52.19
62290;BME280;48284;46.828;29.480;2022-10-20T07:24:07;101729.22;;;24.17;51.73
62290;BME280;48284;46.828;29.480;2022-10-20T07:26:38;101723.97;;;24.17;51.92
62290;BME280;48284;46.828;29.480;2022-10-20T07:29:09;101732.44;;;24.19;52.07
62290;BME280;48284;46.828;29.480;2022-10-20T07:31:39;101736.69;;;24.20;51.55
62290;BME280;48284;46.828;29.480;2022-10-20T07:34:09;101730.22;;;24.23;51.54
62290;BME280;48284;46.828;29.480;2022-10-20T07:36:56;101724.16;;;24.22;51.37
62290;BME280;48284;46.828;29.480;2022-10-20T07:39:25;101729.41;;;24.22;51.63
62290;BME280;48284;46.828;29.480;2022-10-20T07:41:54;101728.84;;;24.14;51.98
62290;BME280;48284;46.828;29.480;2022-10-20T07:44:22;101735.50;;;24.16;52.12
62290;BME280;48284;46.828;29.480;2022-10-20T07:46:51;101731.66;;;24.19;51.98
62290;BME280;48284;46.828;29.480;2022-10-20T07:49:19;101735.88;;;24.20;51.77
62290;BME280;48284;46.828;29.480;2022-10-20T07:52:10;101735.88;;;24.20;51.59
62290;BME280;48284;46.828;29.480;2022-10-20T07:54:38;101739.31;;;24.20;51.74
62290;BME280;48284;46.828;29.480;2022-10-20T07:57:07;101734.28;;;24.19;52.17
62290;BME280;48284;46.828;29.480;2022-10-20T07:59:35;101730.03;;;24.18;51.85
62290;BME280;48284;46.828;29.480;2022-10-20T08:02:04;101721.16;;;24.19;52.07
62290;BME280;48284;46.828;29.480;2022-10-20T08:04:32;101738.72;;;24.18;52.22
62290;BME280;48284;46.828;29.480;2022-10-20T08:07:01;101737.91;;;24.18;52.14
62290;BME280;48284;46.828;29.480;2022-10-20T08:09:31;101734.69;;;24.16;52.19
62290;BME280;48284;46.828;29.480;2022-10-20T08:12:00;101727.22;;;24.13;52.26
62290;BME280;48284;46.828;29.480;2022-10-20T08:14:28;101732.28;;;24.14;51.91
62290;BME280;48284;46.828;29.480;2022-10-20T08:16:59;101735.09;;;24.13;52.33
62290;BME280;48284;46.828;29.480;2022-10-20T08:19:31;101734.09;;;24.14;52.32
62290;BME280;48284;46.828;29.480;2022-10-20T08:22:15;101735.09;;;24.13;52.19
62290;BME280;48284;46.828;29.480;2022-10-20T08:24:47;101728.25;;;24.12;51.87
62290;BME280;48284;46.828;29.480;2022-10-20T08:27:15;101739.75;;;24.11;51.82
62290;BME280;48284;46.828;29.480;2022-10-20T08:29:44;101738.16;;;24.10;51.82
62290;BME280;48284;46.828;29.480;2022-10-20T08:32:26;101736.53;;;24.09;52.30
62290;BME280;48284;46.828;29.480;2022-10-20T08:34:54;101739.97;;;24.09;52.15
62290;BME280;48284;46.828;29.480;2022-10-20T08:37:23;101740.97;;;24.08;52.16
62290;BME280;48284;46.828;29.480;2022-10-20T08:39:53;101735.72;;;24.08;52.15
62290;BME280;48284;46.828;29.480;2022-10-20T08:42:22;101751.47;;;24.08;51.89
62290;BME280;48284;46.828;29.480;2022-10-20T08:44:54;101743.59;;;24.08;52.07
62290;BME280;48284;46.828;29.480;2022-10-20T08:47:29;101758.09;;;24.11;52.07
62290;BME280;48284;46.828;29.480;2022-10-20T08:50:00;101753.88;;;24.10;51.69
62290;BME280;48284;46.828;29.480;2022-10-20T08:52:29;101759.53;;;24.07;51.90
62290;BME280;48284;46.828;29.480;2022-10-20T08:55:00;101761.94;;;24.08;51.89
62290;BME280;48284;46.828;29.480;2022-10-20T08:57:31;101755.31;;;24.06;52.01
62290;BME280;48284;46.828;29.480;2022-10-20T09:00:13;101759.16;;;24.03;52.31
62290;BME280;48284;46.828;29.480;2022-10-20T09:02:42;101755.50;;;24.04;52.14
62290;BME280;48284;46.828;29.480;2022-10-20T09:05:11;101753.09;;;24.03;52.22
62290;BME280;48284;46.828;29.480;2022-10-20T09:07:45;101763.97;;;24.06;52.55
62290;BME280;48284;46.828;29.480;2022-10-20T09:10:24;101764.38;;;24.10;52.07
62290;BME280;48284;46.828;29.480;2022-10-20T09:12:54;101762.34;;;24.12;52.60
62290;BME280;48284;46.828;29.480;2022-10-20T09:15:24;101757.91;;;24.12;52.14
62290;BME280;48284;46.828;29.480;2022-10-20T09:17:54;101754.28;;;24.13;51.98
62290;BME280;48284;46.828;29.480;2022-10-20T09:20:27;101769.00;;;24.14;51.97
62290;BME280;48284;46.828;29.480;2022-10-20T09:22:57;101756.69;;;24.15;52.03
62290;BME280;48284;46.828;29.480;2022-10-20T09:25:32;101772.63;;;24.13;51.66
62290;BME280;48284;46.828;29.480;2022-10-20T09:28:01;101776.84;;;24.14;51.87
62290;BME280;48284;46.828;29.480;2022-10-20T09:30:32;101769.19;;;24.13;51.64
62290;BME280;48284;46.828;29.480;2022-10-20T09:33:24;101777.28;;;24.11;51.87
62290;BME280;48284;46.828;29.480;2022-10-20T09:36:01;101757.91;;;24.12;51.49
62290;BME280;48284;46.828;29.480;2022-10-20T09:38:32;101760.31;;;24.14;51.96
62290;BME280;48284;46.828;29.480;2022-10-20T09:41:08;101766.97;;;24.16;51.92
62290;BME280;48284;46.828;29.480;2022-10-20T09:43:47;101756.25;;;24.18;52.05
62290;BME280;48284;46.828;29.480;2022-10-20T09:46:23;101764.13;;;24.18;52.11
62290;BME280;48284;46.828;29.480;2022-10-20T09:48:53;101766.75;;;24.18;52.12
62290;BME280;48284;46.828;29.480;2022-10-20T09:51:24;101769.59;;;24.16;51.88
62290;BME280;48284;46.828;29.480;2022-10-20T09:53:56;101767.97;;;24.15;51.74
62290;BME280;48284;46.828;29.480;2022-10-20T09:56:28;101786.53;;;24.14;51.49
62290;BME280;48284;46.828;29.480;2022-10-20T09:58:59;101764.56;;;24.15;51.67
62290;BME280;48284;46.828;29.480;2022-10-20T10:01:28;101774.03;;;24.16;51.21
62290;BME280;48284;46.828;29.480;2022-10-20T10:03:57;101782.50;;;24.18;51.52
62290;BME280;48284;46.828;29.480;2022-10-20T10:06:31;101774.41;;;24.19;51.17
62290;BME280;48284;46.828;29.480;2022-10-20T10:09:25;101780.47;;;24.20;51.82
62290;BME280;48284;46.828;29.480;2022-10-20T10:12:03;101784.88;;;24.26;51.51
62290;BME280;48284;46.828;29.480;2022-10-20T10:14:33;101791.38;;;24.30;51.74
62290;BME280;48284;46.828;29.480;2022-10-20T10:17:04;101792.78;;;24.33;51.90
62290;BME280;48284;46.828;29.480;2022-10-20T10:19:33;101796.22;;;24.33;51.83
62290;BME280;48284;46.828;29.480;2022-10-20T10:22:03;101781.88;;;24.36;51.58
62290;BME280;48284;46.828;29.480;2022-10-20T10:25:04;101787.44;;;24.52;51.55
62290;BME280;48284;46.828;29.480;2022-10-20T10:27:34;101790.97;;;24.71;51.27
62290;BME280;48284;46.828;29.480;2022-10-20T10:30:26;101787.13;;;24.74;51.17
62290;BME280;48284;46.828;29.480;2022-10-20T10:32:56;101788.31;;;24.78;51.12
62290;BME280;48284;46.828;29.480;2022-10-20T10:35:26;101783.03;;;24.78;51.01
62290;BME280;48284;46.828;29.480;2022-10-20T10:37:57;101791.50;;;24.80;50.68
62290;BME280;48284;46.828;29.480;2022-10-20T10:40:31;101799.59;;;24.78;50.93
62290;BME280;48284;46.828;29.480;2022-10-20T10:43:15;101800.41;;;24.79;50.93
62290;BME280;48284;46.828;29.480;2022-10-20T10:45:56;101790.72;;;24.79;50.71
62290;BME280;48284;46.828;29.480;2022-10-20T10:48:55;101793.75;;;24.76;50.25
62290;BME280;48284;46.828;29.480;2022-10-20T10:51:32;101780.63;;;24.76;50.64
62290;BME280;48284;46.828;29.480;2022-10-20T10:54:14;101785.88;;;24.76;50.58
62290;BME280;48284;46.828;29.480;2022-10-20T10:56:47;101774.56;;;24.76;50.06
62290;BME280;48284;46.828;29.480;2022-10-20T10:59:20;101760.44;;;24.77;50.52
62290;BME280;48284;46.828;29.480;2022-10-20T11:02:00;101763.28;;;24.75;50.66
62290;BME280;48284;46.828;29.480;2022-10-20T11:04:56;101774.56;;;24.76;50.39
62290;BME280;48284;46.828;29.480;2022-10-20T11:07:36;101779.41;;;24.79;50.43
62290;BME280;48284;46.828;29.480;2022-10-20T11:10:12;101758.56;;;24.84;50.64
62290;BME280;48284;46.828;29.480;2022-10-20T11:12:56;101761.81;;;24.86;50.49
62290;BME280;48284;46.828;29.480;2022-10-20T11:15:40;101766.06;;;24.87;50.42
62290;BME280;48284;46.828;29.480;2022-10-20T11:18:16;101762.19;;;24.89;50.09
62290;BME280;48284;46.828;29.480;2022-10-20T11:20:53;101759.34;;;24.91;50.65
62290;BME280;48284;46.828;29.480;2022-10-20T11:23:45;101762.56;;;24.93;50.71
62290;BME280;48284;46.828;29.480;2022-10-20T11:26:22;101770.81;;;24.97;50.78
62290;BME280;48284;46.828;29.480;2022-10-20T11:28:57;101775.91;;;24.98;50.54
62290;BME280;48284;46.828;29.480;2022-10-20T11:31:29;101767.81;;;25.00;50.66
62290;BME280;48284;46.828;29.480;2022-10-20T11:34:04;101767.38;;;25.03;50.65
62290;BME280;48284;46.828;29.480;2022-10-20T11:36:37;101747.75;;;25.05;50.31
62290;BME280;48284;46.828;29.480;2022-10-20T11:39:13;101748.78;;;25.04;50.21
62290;BME280;48284;46.828;29.480;2022-10-20T11:41:46;101752.00;;;25.06;50.27
62290;BME280;48284;46.828;29.480;2022-10-20T11:44:24;101752.78;;;25.07;50.46
62290;BME280;48284;46.828;29.480;2022-10-20T11:46:59;101749.38;;;25.06;50.12
62290;BME280;48284;46.828;29.480;2022-10-20T11:49:31;101755.22;;;25.08;50.04
62290;BME280;48284;46.828;29.480;2022-10-20T11:58:36;101740.47;;;25.07;50.59
62290;BME280;48284;46.828;29.480;2022-10-20T12:01:24;101745.50;;;25.09;50.68
62290;BME280;48284;46.828;29.480;2022-10-20T12:04:14;101756.81;;;25.09;50.81
62290;BME280;48284;46.828;29.480;2022-10-20T12:10:03;101750.53;;;25.10;50.67
62290;BME280;48284;46.828;29.480;2022-10-20T12:12:37;101738.81;;;25.13;50.36
62290;BME280;48284;46.828;29.480;2022-10-20T12:15:19;101752.16;;;25.11;50.47
62290;BME280;48284;46.828;29.480;2022-10-20T12:17:51;101749.53;;;25.11;51.07
62290;BME280;48284;46.828;29.480;2022-10-20T12:20:40;101747.31;;;25.08;50.97
62290;BME280;48284;46.828;29.480;2022-10-20T12:27:04;101737.91;;;25.01;51.32
62290;BME280;48284;46.828;29.480;2022-10-20T12:29:50;101743.16;;;25.01;51.27
62290;BME280;48284;46.828;29.480;2022-10-20T12:38:29;101766.94;;;25.06;51.56
62290;BME280;48284;46.828;29.480;2022-10-20T12:41:00;101761.84;;;25.11;51.33
62290;BME280;48284;46.828;29.480;2022-10-20T12:43:32;101758.00;;;25.13;51.48
62290;BME280;48284;46.828;29.480;2022-10-20T12:46:08;101766.69;;;25.14;51.55
62290;BME280;48284;46.828;29.480;2022-10-20T12:48:42;101762.81;;;25.16;51.23
62290;BME280;48284;46.828;29.480;2022-10-20T12:51:23;101766.63;;;25.20;51.47
62290;BME280;48284;46.828;29.480;2022-10-20T12:54:00;101761.38;;;25.20;50.89
62290;BME280;48284;46.828;29.480;2022-10-20T12:56:34;101759.31;;;25.22;50.99
62290;BME280;48284;46.828;29.480;2022-10-20T12:59:19;101766.78;;;25.26;51.37
62290;BME280;48284;46.828;29.480;2022-10-20T13:05:40;101766.78;;;25.26;51.23
62290;BME280;48284;46.828;29.480;2022-10-20T13:08:24;101778.69;;;25.28;51.13
62290;BME280;48284;46.828;29.480;2022-10-20T13:10:56;101783.28;;;25.33;51.07
62290;BME280;48284;46.828;29.480;2022-10-20T13:13:48;101768.53;;;25.32;51.18
62290;BME280;48284;46.828;29.480;2022-10-20T13:16:30;101788.34;;;25.34;51.12
62290;BME280;48284;46.828;29.480;2022-10-20T13:19:00;101790.75;;;25.36;50.97
62290;BME280;48284;46.828;29.480;2022-10-20T13:21:33;101790.75;;;25.36;51.02
62290;BME280;48284;46.828;29.480;2022-10-20T13:24:11;101797.22;;;25.33;50.65
62290;BME280;48284;46.828;29.480;2022-10-20T13:26:52;101797.44;;;25.32;50.73
62290;BME280;48284;46.828;29.480;2022-10-20T13:29:29;101805.13;;;25.33;51.04
62290;BME280;48284;46.828;29.480;2022-10-20T13:32:09;101804.09;;;25.34;50.63
62290;BME280;48284;46.828;29.480;2022-10-20T13:34:47;101806.72;;;25.34;50.74
62290;BME280;48284;46.828;29.480;2022-10-20T13:37:26;101809.34;;;25.34;50.27